createdAt,value
2023-01-17T00:02:16.610Z,14.10
2023-01-17T00:05:02.768Z,11.70
2023-01-17T00:07:49.567Z,12.88
2023-01-17T00:10:22.073Z,12.32
2023-01-17T00:12:52.020Z,12.25
2023-01-17T00:15:23.794Z,11.25
2023-01-17T00:17:51.843Z,12.13
2023-01-17T00:20:45.492Z,9.70
2023-01-17T00:23:44.555Z,11.82
2023-01-17T00:26:18.973Z,10.35
2023-01-17T00:29:06.643Z,12.65
2023-01-17T00:31:53.047Z,9.73
2023-01-17T00:34:39.075Z,11.20
2023-01-17T00:37:25.040Z,12.68
2023-01-17T00:40:11.586Z,12.65
2023-01-17T00:42:57.834Z,13.15
2023-01-17T00:45:43.892Z,13.07
2023-01-17T00:48:31.712Z,12.20
2023-01-17T00:51:17.725Z,12.75
2023-01-17T00:54:04.006Z,13.07
2023-01-17T00:56:50.302Z,12.25
2023-01-17T00:59:36.391Z,11.45
2023-01-17T01:02:22.519Z,12.30
2023-01-17T01:05:08.769Z,13.10
2023-01-17T01:07:55.153Z,11.27
2023-01-17T01:10:41.236Z,13.77
2023-01-17T01:13:27.408Z,11.07
2023-01-17T01:16:13.695Z,11.70
2023-01-17T01:19:00.354Z,13.45
2023-01-17T01:21:46.467Z,13.73
2023-01-17T01:24:32.534Z,12.35
2023-01-17T01:27:18.711Z,14.93
2023-01-17T01:30:04.688Z,12.00
2023-01-17T01:32:56.952Z,12.48
2023-01-17T01:35:26.476Z,12.30
2023-01-17T01:37:53.992Z,12.20
2023-01-17T01:40:22.564Z,10.02
2023-01-17T01:42:54.533Z,12.50
2023-01-17T01:45:24.681Z,10.77
2023-01-17T01:48:22.337Z,10.95
2023-01-17T01:50:50.125Z,13.68
2023-01-17T01:53:18.288Z,12.55
2023-01-17T01:55:45.956Z,12.57
2023-01-17T01:58:23.989Z,11.82
2023-01-17T02:00:51.616Z,13.73
2023-01-17T02:03:25.083Z,13.07
2023-01-17T02:05:52.712Z,12.95
2023-01-17T02:08:21.426Z,14.20
2023-01-17T02:10:49.244Z,14.70
2023-01-17T02:13:17.957Z,14.50
2023-01-17T02:15:45.421Z,14.23
2023-01-17T02:18:34.836Z,13.38
2023-01-17T02:21:26.694Z,13.85
2023-01-17T02:24:24.678Z,13.52
2023-01-17T02:27:00.610Z,13.77
2023-01-17T02:29:37.295Z,14.18
2023-01-17T02:32:14.978Z,14.52
2023-01-17T02:35:14.308Z,13.88
2023-01-17T02:38:00.405Z,14.05
2023-01-17T02:40:35.248Z,14.30
2023-01-17T02:43:05.728Z,15.32
2023-01-17T02:45:33.897Z,16.52
2023-01-17T02:48:01.501Z,17.35
2023-01-17T02:50:39.781Z,16.35
2023-01-17T02:53:30.021Z,16.05
2023-01-17T02:56:03.228Z,17.90
2023-01-17T02:58:50.641Z,16.75
2023-01-17T03:01:47.716Z,17.75
2023-01-17T03:04:18.690Z,15.85
2023-01-17T03:06:54.869Z,18.75
2023-01-17T03:09:22.491Z,15.77
2023-01-17T03:11:52.457Z,14.23
2023-01-17T03:14:20.070Z,15.02
2023-01-17T03:16:47.673Z,16.27
2023-01-17T03:19:16.270Z,14.70
2023-01-17T03:21:44.817Z,17.58
2023-01-17T03:24:12.593Z,19.67
2023-01-17T03:26:40.186Z,21.48
2023-01-17T03:29:07.765Z,16.10
2023-01-17T03:31:35.837Z,13.45
2023-01-17T03:34:03.409Z,11.23
2023-01-17T03:36:31.033Z,12.48
2023-01-17T03:38:58.620Z,11.70
2023-01-17T03:41:26.223Z,12.02
2023-01-17T03:43:54.055Z,11.77
2023-01-17T03:46:23.407Z,10.43
2023-01-17T03:48:51.038Z,11.82
2023-01-17T03:51:19.297Z,10.80
2023-01-17T03:53:47.116Z,11.88
2023-01-17T03:56:14.767Z,11.75
2023-01-17T03:58:42.518Z,11.55
2023-01-17T04:01:10.576Z,13.32
2023-01-17T04:03:56.396Z,16.52
2023-01-17T04:06:24.224Z,27.70
2023-01-17T04:08:52.115Z,34.88
2023-01-17T04:11:19.937Z,27.00
2023-01-17T04:13:49.659Z,33.33
2023-01-17T04:16:17.532Z,36.47
2023-01-17T04:18:45.108Z,33.22
2023-01-17T04:21:13.096Z,28.83
2023-01-17T04:23:41.119Z,26.33
2023-01-17T04:26:09.671Z,21.00
2023-01-17T04:28:37.509Z,17.77
2023-01-17T04:31:05.246Z,14.32
2023-01-17T04:33:33.549Z,14.45
2023-01-17T04:36:01.140Z,12.45
2023-01-17T04:38:28.799Z,13.25
2023-01-17T04:40:56.393Z,12.52
2023-01-17T04:43:24.024Z,13.40
2023-01-17T04:45:56.535Z,13.55
2023-01-17T04:48:24.703Z,13.43
2023-01-17T04:50:52.239Z,10.60
2023-01-17T04:53:19.803Z,12.63
2023-01-17T04:55:47.371Z,11.82
2023-01-17T04:58:14.950Z,9.68
2023-01-17T05:00:42.513Z,13.60
2023-01-17T05:03:10.584Z,12.02
2023-01-17T05:05:38.120Z,12.57
2023-01-17T05:08:06.043Z,11.10
2023-01-17T05:10:34.910Z,12.50
2023-01-17T05:13:03.253Z,14.10
2023-01-17T05:15:30.881Z,14.05
2023-01-17T05:17:58.654Z,13.75
2023-01-17T05:20:26.668Z,15.98
2023-01-17T05:22:55.651Z,16.27
2023-01-17T05:25:28.133Z,13.73
2023-01-17T05:27:55.887Z,14.23
2023-01-17T05:30:23.732Z,13.52
2023-01-17T05:32:52.169Z,12.63
2023-01-17T05:35:21.070Z,13.50
2023-01-17T05:37:51.884Z,11.63
2023-01-17T05:40:21.197Z,14.43
2023-01-17T05:42:55.011Z,13.07
2023-01-17T05:45:23.469Z,14.93
2023-01-17T05:47:52.117Z,13.45
2023-01-17T05:50:25.925Z,15.25
2023-01-17T05:52:55.903Z,15.65
2023-01-17T05:55:23.958Z,14.05
2023-01-17T05:57:51.671Z,15.18
2023-01-17T06:00:19.942Z,16.30
2023-01-17T06:02:47.853Z,16.55
2023-01-17T06:05:17.792Z,17.20
2023-01-17T06:07:46.180Z,14.57
2023-01-17T06:10:14.690Z,15.20
2023-01-17T06:12:43.344Z,14.15
2023-01-17T06:15:14.196Z,16.05
2023-01-17T06:17:42.353Z,13.35
2023-01-17T06:20:11.018Z,10.82
2023-01-17T06:22:38.745Z,15.93
2023-01-17T06:25:07.159Z,13.52
2023-01-17T06:27:35.165Z,15.90
2023-01-17T06:30:03.972Z,14.88
2023-01-17T06:32:31.860Z,14.25
2023-01-17T06:34:59.364Z,16.23
2023-01-17T06:37:26.948Z,17.33
2023-01-17T06:39:54.614Z,15.25
2023-01-17T06:42:22.425Z,21.60
2023-01-17T06:44:49.936Z,21.67
2023-01-17T06:47:17.496Z,21.50
2023-01-17T06:49:44.990Z,18.63
2023-01-17T06:52:12.529Z,16.60
2023-01-17T06:54:40.322Z,17.48
2023-01-17T06:57:07.848Z,15.90
2023-01-17T06:59:35.452Z,19.00
2023-01-17T07:02:03.031Z,17.45
2023-01-17T07:04:30.812Z,19.48
2023-01-17T07:06:58.320Z,19.00
2023-01-17T07:09:25.861Z,20.42
2023-01-17T07:11:59.728Z,21.45
2023-01-17T07:14:27.588Z,21.70
2023-01-17T07:16:55.787Z,19.90
2023-01-17T07:19:24.153Z,17.85
2023-01-17T07:21:52.738Z,18.30
2023-01-17T07:24:20.635Z,17.02
2023-01-17T07:26:49.273Z,18.60
2023-01-17T07:29:17.024Z,15.77
2023-01-17T07:31:44.756Z,15.80
2023-01-17T07:34:12.489Z,15.95
2023-01-17T07:36:40.001Z,18.08
2023-01-17T07:39:10.683Z,18.40
2023-01-17T07:41:41.512Z,20.00
2023-01-17T07:44:12.192Z,15.43
2023-01-17T07:46:40.356Z,16.27
2023-01-17T07:49:08.265Z,16.75
2023-01-17T07:51:35.979Z,15.30
2023-01-17T07:54:03.774Z,19.25
2023-01-17T07:56:31.562Z,21.75
2023-01-17T07:58:59.148Z,17.73
2023-01-17T08:01:27.475Z,18.00
2023-01-17T08:04:10.043Z,20.27
2023-01-17T08:06:38.113Z,20.42
2023-01-17T08:09:07.049Z,20.45
2023-01-17T08:11:35.159Z,19.25
2023-01-17T08:14:02.758Z,21.33
2023-01-17T08:16:32.985Z,21.23
2023-01-17T08:19:00.734Z,26.52
2023-01-17T08:21:28.793Z,21.65
2023-01-17T08:23:56.687Z,18.35
2023-01-17T08:26:25.069Z,19.45
2023-01-17T08:28:57.097Z,20.58
2023-01-17T08:31:24.946Z,20.52
2023-01-17T08:33:52.789Z,23.40
2023-01-17T08:36:20.815Z,23.02
2023-01-17T08:38:53.031Z,23.45
2023-01-17T08:41:21.526Z,25.88
2023-01-17T08:43:49.608Z,26.80
2023-01-17T08:46:17.525Z,22.15
2023-01-17T08:48:45.235Z,26.45
2023-01-17T08:51:13.020Z,23.15
2023-01-17T08:53:40.873Z,26.63
2023-01-17T08:56:09.380Z,25.42
2023-01-17T08:58:37.042Z,24.98
2023-01-17T09:01:05.717Z,25.13
2023-01-17T09:03:34.069Z,23.90
2023-01-17T09:06:09.027Z,23.23
2023-01-17T09:08:41.755Z,22.50
2023-01-17T09:11:13.814Z,23.85
2023-01-17T09:13:41.462Z,25.38
2023-01-17T09:16:09.499Z,24.70
2023-01-17T09:18:40.789Z,18.65
2023-01-17T09:21:16.077Z,21.48
2023-01-17T09:23:43.884Z,34.47
2023-01-17T09:26:22.427Z,29.98
2023-01-17T09:28:50.192Z,26.83
2023-01-17T09:31:18.523Z,20.63
2023-01-17T09:33:46.693Z,25.25
2023-01-17T09:36:14.345Z,27.15
2023-01-17T09:38:41.964Z,22.52
2023-01-17T09:41:23.705Z,27.98
2023-01-17T09:46:24.030Z,24.73
2023-01-17T09:48:57.249Z,25.05
2023-01-17T09:51:26.371Z,22.08
2023-01-17T09:53:53.924Z,26.23
2023-01-17T09:56:29.775Z,26.40
2023-01-17T09:59:08.714Z,27.30
2023-01-17T10:01:42.372Z,27.42
2023-01-17T10:04:34.831Z,29.05
2023-01-17T10:07:13.638Z,28.70
2023-01-17T10:09:53.847Z,26.15
2023-01-17T10:12:44.906Z,25.70
2023-01-17T10:15:39.287Z,19.02
2023-01-17T10:18:30.522Z,24.80
2023-01-17T10:21:01.683Z,22.88
2023-01-17T10:24:06.663Z,19.50
2023-01-17T10:26:34.444Z,25.63
2023-01-17T10:29:04.116Z,21.75
2023-01-17T10:34:13.857Z,28.55
2023-01-17T10:36:47.010Z,29.52
2023-01-17T10:39:22.222Z,20.95
2023-01-17T10:42:00.966Z,27.25
2023-01-17T10:44:35.978Z,28.95
2023-01-17T10:47:15.025Z,22.88
2023-01-17T10:49:47.416Z,27.55
2023-01-17T10:52:24.702Z,30.30
2023-01-17T10:54:52.357Z,27.17
2023-01-17T10:57:24.443Z,21.77
2023-01-17T10:59:52.541Z,28.45
2023-01-17T11:02:30.428Z,30.33
2023-01-17T11:04:58.466Z,27.85
2023-01-17T11:07:27.447Z,29.77
2023-01-17T11:09:58.865Z,27.88
2023-01-17T11:12:46.440Z,19.42
2023-01-17T11:15:13.932Z,25.15
2023-01-17T11:18:00.341Z,29.55
2023-01-17T11:20:38.144Z,26.05
2023-01-17T11:23:06.438Z,28.42
2023-01-17T11:25:34.559Z,24.33
2023-01-17T11:28:40.501Z,25.10
2023-01-17T11:31:24.067Z,25.70
2023-01-17T11:34:18.783Z,26.92
2023-01-17T11:36:50.234Z,26.98
2023-01-17T11:39:18.319Z,23.98
2023-01-17T11:41:47.910Z,28.27
2023-01-17T11:44:31.022Z,28.30
2023-01-17T11:47:09.943Z,24.48
2023-01-17T11:49:38.356Z,30.40
2023-01-17T11:52:10.202Z,30.63
2023-01-17T11:54:42.832Z,28.17
2023-01-17T11:57:32.042Z,24.15
2023-01-17T12:00:09.176Z,27.88
2023-01-17T12:02:52.357Z,24.58
2023-01-17T12:05:33.792Z,29.05
2023-01-17T12:08:30.615Z,27.08
2023-01-17T12:11:16.889Z,31.10
2023-01-17T12:14:02.803Z,31.00
2023-01-17T12:16:52.332Z,26.00
2023-01-17T12:19:27.254Z,30.98
2023-01-17T12:22:13.763Z,25.27
2023-01-17T12:24:50.643Z,24.35
2023-01-17T12:27:43.487Z,29.70
2023-01-17T12:30:25.582Z,29.52
2023-01-17T12:33:09.563Z,25.80
2023-01-17T12:35:38.950Z,30.02
2023-01-17T12:38:14.044Z,31.83
2023-01-17T12:40:52.083Z,30.73
2023-01-17T12:43:33.621Z,30.42
2023-01-17T12:46:03.325Z,29.90
2023-01-17T12:48:34.806Z,30.33
2023-01-17T12:54:13.402Z,26.92
2023-01-17T12:57:03.868Z,27.88
2023-01-17T12:59:50.159Z,30.13
2023-01-17T13:02:23.209Z,31.83
2023-01-17T13:04:58.856Z,32.53
2023-01-17T13:08:15.315Z,33.40
2023-01-17T13:10:59.797Z,33.83
2023-01-17T13:13:29.015Z,31.52
2023-01-17T13:16:07.537Z,33.58
2023-01-17T13:18:35.510Z,30.23
2023-01-17T13:21:27.499Z,29.05
2023-01-17T13:23:59.285Z,34.03
2023-01-17T13:26:53.484Z,37.58
2023-01-17T13:29:39.569Z,38.17
2023-01-17T13:32:40.396Z,38.17
2023-01-17T13:35:42.999Z,34.50
2023-01-17T13:38:34.761Z,25.38
2023-01-17T13:41:10.896Z,33.53
2023-01-17T13:43:40.885Z,31.63
2023-01-17T13:46:08.694Z,32.72
2023-01-17T13:48:41.105Z,33.65
2023-01-17T13:51:09.730Z,31.45
2023-01-17T13:53:40.217Z,31.70
2023-01-17T13:56:20.170Z,31.00
2023-01-17T13:58:52.007Z,26.30
2023-01-17T14:01:22.826Z,28.45
2023-01-17T14:03:50.529Z,32.10
2023-01-17T14:06:37.160Z,30.65
2023-01-17T14:09:29.936Z,29.70
2023-01-17T14:12:05.586Z,31.10
2023-01-17T14:14:45.635Z,31.27
2023-01-17T14:17:17.651Z,29.55
2023-01-17T14:19:48.481Z,28.15
2023-01-17T14:22:19.222Z,30.50
2023-01-17T14:25:09.952Z,31.23
2023-01-17T14:27:58.552Z,32.53
2023-01-17T14:30:28.579Z,33.20
2023-01-17T14:32:59.130Z,32.63
2023-01-17T14:35:40.907Z,32.58
2023-01-17T14:38:22.855Z,31.10
2023-01-17T14:40:56.311Z,30.48
2023-01-17T14:43:27.576Z,32.92
2023-01-17T14:46:02.413Z,30.60
2023-01-17T14:48:30.329Z,31.50
2023-01-17T14:51:00.523Z,35.10
2023-01-17T14:53:31.822Z,43.05
2023-01-17T14:56:12.384Z,43.88
2023-01-17T14:58:41.376Z,55.13
2023-01-17T15:01:16.371Z,50.90
2023-01-17T15:03:51.068Z,44.38
2023-01-17T15:06:20.968Z,39.42
2023-01-17T15:08:49.149Z,38.20
2023-01-17T15:11:26.998Z,35.65
2023-01-17T15:13:57.632Z,37.72
2023-01-17T15:16:30.286Z,35.08
2023-01-17T15:18:57.969Z,26.90
2023-01-17T15:21:28.440Z,32.30
2023-01-17T15:24:01.584Z,30.33
2023-01-17T15:26:32.010Z,32.80
2023-01-17T15:29:05.578Z,30.70
2023-01-17T15:31:43.724Z,33.35
2023-01-17T15:34:38.209Z,29.98
2023-01-17T15:37:24.606Z,32.60
2023-01-17T15:39:52.344Z,36.17
2023-01-17T15:42:23.192Z,35.97
2023-01-17T15:44:55.548Z,35.15
2023-01-17T15:47:40.974Z,39.42
2023-01-17T15:50:30.676Z,42.42
2023-01-17T15:53:05.350Z,36.58
2023-01-17T15:55:37.216Z,29.77
2023-01-17T15:58:05.872Z,35.25
2023-01-17T16:00:38.489Z,41.75
2023-01-17T16:03:31.886Z,53.83
2023-01-17T16:06:00.879Z,54.45
2023-01-17T16:08:40.616Z,51.72
2023-01-17T16:11:08.715Z,41.50
2023-01-17T16:13:42.436Z,34.28
2023-01-17T16:16:13.250Z,29.35
2023-01-17T16:18:44.378Z,33.42
2023-01-17T16:21:21.428Z,38.50
2023-01-17T16:23:49.459Z,36.92
2023-01-17T16:26:17.148Z,36.67
2023-01-17T16:28:45.931Z,34.35
2023-01-17T16:31:13.738Z,26.33
2023-01-17T16:33:42.557Z,28.80
2023-01-17T16:36:13.141Z,28.88
2023-01-17T16:38:41.403Z,32.22
2023-01-17T16:41:09.132Z,30.60
2023-01-17T16:43:37.186Z,29.55
2023-01-17T16:46:05.024Z,27.27
2023-01-17T16:48:33.853Z,29.83
2023-01-17T16:51:02.288Z,31.48
2023-01-17T16:53:30.150Z,29.00
2023-01-17T16:55:59.665Z,34.45
2023-01-17T16:58:28.503Z,35.90
2023-01-17T17:00:56.788Z,35.88
2023-01-17T17:03:25.249Z,44.80
2023-01-17T17:05:59.147Z,46.33
2023-01-17T17:08:29.253Z,50.00
2023-01-17T17:11:15.426Z,45.80
2023-01-17T17:13:44.795Z,65.53
2023-01-17T17:16:17.758Z,52.70
2023-01-17T17:18:46.171Z,61.97
2023-01-17T17:21:14.137Z,64.72
2023-01-17T17:23:43.335Z,56.25
2023-01-17T17:26:11.443Z,53.03
2023-01-17T17:28:39.106Z,52.22
2023-01-17T17:31:10.548Z,47.97
2023-01-17T17:33:41.751Z,42.20
2023-01-17T17:36:12.742Z,53.75
2023-01-17T17:38:58.276Z,51.15
2023-01-17T17:41:27.624Z,50.78
2023-01-17T17:43:55.334Z,51.47
2023-01-17T17:46:24.051Z,49.10
2023-01-17T17:48:52.055Z,62.67
2023-01-17T17:51:27.980Z,64.10
2023-01-17T17:53:56.355Z,65.72
2023-01-17T17:56:24.042Z,63.72
2023-01-17T17:58:51.881Z,55.22
2023-01-17T18:01:22.877Z,58.30
2023-01-17T18:03:52.137Z,59.97
2023-01-17T18:06:20.133Z,51.30
2023-01-17T18:08:48.736Z,62.67
2023-01-17T18:11:22.773Z,53.85
2023-01-17T18:13:51.268Z,49.83
2023-01-17T18:16:24.239Z,51.53
2023-01-17T18:18:53.699Z,56.50
2023-01-17T18:21:25.489Z,54.47
2023-01-17T18:24:00.634Z,50.80
2023-01-17T18:26:39.064Z,53.97
2023-01-17T18:29:07.607Z,55.15
2023-01-17T18:31:35.833Z,43.20
2023-01-17T18:34:05.797Z,42.65
2023-01-17T18:36:34.976Z,37.90
2023-01-17T18:39:05.183Z,30.60
2023-01-17T18:41:33.390Z,33.80
2023-01-17T18:44:04.189Z,33.35
2023-01-17T18:46:32.132Z,28.85
2023-01-17T18:48:59.875Z,31.92
2023-01-17T18:51:29.010Z,34.63
2023-01-17T18:53:58.152Z,35.85
2023-01-17T18:56:30.763Z,41.17
2023-01-17T18:58:58.489Z,31.52
2023-01-17T19:01:29.114Z,36.70
2023-01-17T19:03:58.123Z,54.63
2023-01-17T19:06:33.438Z,62.47
2023-01-17T19:09:01.759Z,67.20
2023-01-17T19:11:29.680Z,66.35
2023-01-17T19:13:57.529Z,65.50
2023-01-17T19:16:30.340Z,55.20
2023-01-17T22:27:41.850Z,64.47
2023-01-17T22:30:13.171Z,53.25
2023-01-17T22:32:41.088Z,40.15
2023-01-17T22:35:09.618Z,46.08
2023-01-17T22:37:37.647Z,35.35
2023-01-17T22:40:06.155Z,29.90
2023-01-17T22:42:34.646Z,29.70
2023-01-17T22:45:05.092Z,31.30
2023-01-17T22:47:34.419Z,29.33
2023-01-17T22:50:02.351Z,29.40
2023-01-17T22:52:30.454Z,29.40
2023-01-17T22:54:58.364Z,27.23
2023-01-17T22:57:26.065Z,27.02
2023-01-17T22:59:53.981Z,26.13
2023-01-17T23:02:21.906Z,23.02
2023-01-17T23:04:49.738Z,25.92
2023-01-17T23:07:18.245Z,25.60
2023-01-17T23:09:46.117Z,24.17
2023-01-17T23:12:13.809Z,26.27
2023-01-17T23:15:01.872Z,26.55
2023-01-17T23:17:48.011Z,27.33
2023-01-17T23:20:15.758Z,26.73
2023-01-17T23:22:43.347Z,23.85
2023-01-17T23:25:13.466Z,24.10
2023-01-17T23:28:03.397Z,33.13
2023-01-17T23:30:34.680Z,32.22
2023-01-17T23:35:32.663Z,29.48
2023-01-17T23:38:18.870Z,28.00
2023-01-17T23:41:06.757Z,26.75
2023-01-17T23:43:34.947Z,33.40
2023-01-17T23:46:02.788Z,32.60
2023-01-17T23:48:31.390Z,28.67
2023-01-17T23:51:30.639Z,27.17
2023-01-17T23:54:05.547Z,28.17
2023-01-17T23:56:33.769Z,34.53
2023-01-17T23:59:01.550Z,43.85
